sensor_id;sensor_type;location;lat;lon;timestamp;P1;durP1;ratioP1;P2;durP2;ratioP2
13090;SDS011;6611;52.604;13.438;2022-12-01T00:04:54;37.70;;;14.47;;
13090;SDS011;6611;52.604;13.438;2022-12-01T00:09:55;38.00;;;15.87;;
13090;SDS011;6611;52.604;13.438;2022-12-01T00:15:14;39.70;;;17.03;;
13090;SDS011;6611;52.604;13.438;2022-12-01T00:20:18;33.67;;;14.90;;
13090;SDS011;6611;52.604;13.438;2022-12-01T00:25:19;44.03;;;15.57;;
13090;SDS011;6611;52.604;13.438;2022-12-01T00:30:21;38.53;;;17.13;;
13090;SDS011;6611;52.604;13.438;2022-12-01T00:35:25;37.80;;;15.60;;
13090;SDS011;6611;52.604;13.438;2022-12-01T00:40:26;33.67;;;15.57;;
13090;SDS011;6611;52.604;13.438;2022-12-01T00:45:28;45.63;;;17.47;;
13090;SDS011;6611;52.604;13.438;2022-12-01T00:50:31;33.90;;;15.13;;
13090;SDS011;6611;52.604;13.438;2022-12-01T00:55:33;33.50;;;14.03;;
13090;SDS011;6611;52.604;13.438;2022-12-01T01:00:35;36.23;;;13.97;;
13090;SDS011;6611;52.604;13.438;2022-12-01T01:05:40;38.10;;;16.27;;
13090;SDS011;6611;52.604;13.438;2022-12-01T01:10:43;39.77;;;15.67;;
13090;SDS011;6611;52.604;13.438;2022-12-01T01:15:55;39.60;;;16.80;;
13090;SDS011;6611;52.604;13.438;2022-12-01T01:20:59;39.50;;;14.93;;
13090;SDS011;6611;52.604;13.438;2022-12-01T01:26:04;38.10;;;14.53;;
13090;SDS011;6611;52.604;13.438;2022-12-01T01:31:07;31.93;;;13.70;;
13090;SDS011;6611;52.604;13.438;2022-12-01T01:36:12;33.13;;;14.20;;
13090;SDS011;6611;52.604;13.438;2022-12-01T01:41:14;32.90;;;13.77;;
13090;SDS011;6611;52.604;13.438;2022-12-01T01:46:17;31.80;;;14.07;;
13090;SDS011;6611;52.604;13.438;2022-12-01T01:51:22;36.40;;;13.80;;
13090;SDS011;6611;52.604;13.438;2022-12-01T01:56:27;28.27;;;12.07;;
13090;SDS011;6611;52.604;13.438;2022-12-01T02:01:29;33.33;;;13.70;;
13090;SDS011;6611;52.604;13.438;2022-12-01T02:06:32;36.93;;;12.90;;
13090;SDS011;6611;52.604;13.438;2022-12-01T02:11:42;38.90;;;13.93;;
13090;SDS011;6611;52.604;13.438;2022-12-01T02:16:52;33.73;;;13.43;;
13090;SDS011;6611;52.604;13.438;2022-12-01T02:22:02;35.13;;;14.63;;
13090;SDS011;6611;52.604;13.438;2022-12-01T02:27:17;32.40;;;13.73;;
13090;SDS011;6611;52.604;13.438;2022-12-01T02:32:30;36.20;;;13.20;;
13090;SDS011;6611;52.604;13.438;2022-12-01T02:37:42;33.97;;;13.60;;
13090;SDS011;6611;52.604;13.438;2022-12-01T02:42:50;38.83;;;13.53;;
13090;SDS011;6611;52.604;13.438;2022-12-01T02:48:04;35.47;;;15.43;;
13090;SDS011;6611;52.604;13.438;2022-12-01T02:53:08;27.47;;;12.77;;
13090;SDS011;6611;52.604;13.438;2022-12-01T02:58:15;33.13;;;13.93;;
13090;SDS011;6611;52.604;13.438;2022-12-01T03:03:23;30.67;;;12.20;;
13090;SDS011;6611;52.604;13.438;2022-12-01T03:08:34;30.33;;;13.10;;
13090;SDS011;6611;52.604;13.438;2022-12-01T03:13:45;34.90;;;12.57;;
13090;SDS011;6611;52.604;13.438;2022-12-01T03:18:58;28.70;;;12.70;;
13090;SDS011;6611;52.604;13.438;2022-12-01T03:24:03;29.70;;;12.97;;
13090;SDS011;6611;52.604;13.438;2022-12-01T03:29:09;30.67;;;12.30;;
13090;SDS011;6611;52.604;13.438;2022-12-01T03:34:17;37.13;;;12.37;;
13090;SDS011;6611;52.604;13.438;2022-12-01T03:39:24;29.77;;;12.30;;
13090;SDS011;6611;52.604;13.438;2022-12-01T03:44:32;47.97;;;15.63;;
13090;SDS011;6611;52.604;13.438;2022-12-01T03:49:38;33.70;;;12.67;;
13090;SDS011;6611;52.604;13.438;2022-12-01T03:54:42;38.00;;;13.67;;
13090;SDS011;6611;52.604;13.438;2022-12-01T03:59:49;37.10;;;13.90;;
13090;SDS011;6611;52.604;13.438;2022-12-01T04:04:53;41.30;;;15.90;;
13090;SDS011;6611;52.604;13.438;2022-12-01T04:09:55;33.70;;;15.57;;
13090;SDS011;6611;52.604;13.438;2022-12-01T04:14:56;36.40;;;14.63;;
13090;SDS011;6611;52.604;13.438;2022-12-01T04:20:00;35.83;;;15.77;;
13090;SDS011;6611;52.604;13.438;2022-12-01T04:25:02;38.30;;;16.17;;
13090;SDS011;6611;52.604;13.438;2022-12-01T04:30:06;41.67;;;17.33;;
13090;SDS011;6611;52.604;13.438;2022-12-01T04:35:10;36.83;;;14.53;;
13090;SDS011;6611;52.604;13.438;2022-12-01T04:40:12;32.47;;;15.07;;
13090;SDS011;6611;52.604;13.438;2022-12-01T04:45:14;36.67;;;15.57;;
13090;SDS011;6611;52.604;13.438;2022-12-01T04:50:18;34.83;;;15.07;;
13090;SDS011;6611;52.604;13.438;2022-12-01T04:55:19;39.03;;;13.80;;
13090;SDS011;6611;52.604;13.438;2022-12-01T05:00:21;36.43;;;15.47;;
13090;SDS011;6611;52.604;13.438;2022-12-01T05:05:24;39.53;;;15.23;;
13090;SDS011;6611;52.604;13.438;2022-12-01T05:10:26;38.90;;;17.33;;
13090;SDS011;6611;52.604;13.438;2022-12-01T05:15:28;37.10;;;15.97;;
13090;SDS011;6611;52.604;13.438;2022-12-01T05:20:31;39.90;;;16.60;;
13090;SDS011;6611;52.604;13.438;2022-12-01T05:25:51;34.17;;;15.40;;
13090;SDS011;6611;52.604;13.438;2022-12-01T05:30:53;33.93;;;15.33;;
13090;SDS011;6611;52.604;13.438;2022-12-01T05:35:57;36.17;;;16.43;;
13090;SDS011;6611;52.604;13.438;2022-12-01T05:40:58;35.80;;;16.37;;
13090;SDS011;6611;52.604;13.438;2022-12-01T05:46:01;40.43;;;16.27;;
13090;SDS011;6611;52.604;13.438;2022-12-01T05:51:08;34.27;;;15.07;;
13090;SDS011;6611;52.604;13.438;2022-12-01T05:56:10;35.23;;;14.63;;
13090;SDS011;6611;52.604;13.438;2022-12-01T06:01:12;35.03;;;14.77;;
13090;SDS011;6611;52.604;13.438;2022-12-01T06:06:15;36.93;;;15.00;;
13090;SDS011;6611;52.604;13.438;2022-12-01T06:11:16;37.53;;;15.00;;
13090;SDS011;6611;52.604;13.438;2022-12-01T06:16:18;37.10;;;16.23;;
13090;SDS011;6611;52.604;13.438;2022-12-01T06:21:21;34.87;;;15.33;;
13090;SDS011;6611;52.604;13.438;2022-12-01T06:26:22;37.43;;;17.07;;
13090;SDS011;6611;52.604;13.438;2022-12-01T06:31:24;41.23;;;17.07;;
13090;SDS011;6611;52.604;13.438;2022-12-01T06:36:27;42.93;;;17.23;;
13090;SDS011;6611;52.604;13.438;2022-12-01T06:41:30;49.60;;;17.93;;
13090;SDS011;6611;52.604;13.438;2022-12-01T06:46:31;45.90;;;19.07;;
13090;SDS011;6611;52.604;13.438;2022-12-01T06:51:34;44.63;;;17.90;;
13090;SDS011;6611;52.604;13.438;2022-12-01T06:56:36;46.77;;;19.83;;
13090;SDS011;6611;52.604;13.438;2022-12-01T07:01:38;54.27;;;19.50;;
13090;SDS011;6611;52.604;13.438;2022-12-01T07:06:41;46.47;;;17.77;;
13090;SDS011;6611;52.604;13.438;2022-12-01T07:11:42;48.93;;;19.53;;
13090;SDS011;6611;52.604;13.438;2022-12-01T07:16:44;57.43;;;23.33;;
13090;SDS011;6611;52.604;13.438;2022-12-01T07:21:47;51.23;;;21.47;;
13090;SDS011;6611;52.604;13.438;2022-12-01T07:26:49;53.83;;;22.07;;
13090;SDS011;6611;52.604;13.438;2022-12-01T07:31:51;54.27;;;21.43;;
13090;SDS011;6611;52.604;13.438;2022-12-01T07:36:54;49.77;;;20.27;;
13090;SDS011;6611;52.604;13.438;2022-12-01T07:41:55;52.77;;;20.77;;
13090;SDS011;6611;52.604;13.438;2022-12-01T07:46:57;60.07;;;23.33;;
13090;SDS011;6611;52.604;13.438;2022-12-01T07:52:00;58.33;;;22.10;;
13090;SDS011;6611;52.604;13.438;2022-12-01T07:57:01;58.70;;;24.67;;
13090;SDS011;6611;52.604;13.438;2022-12-01T08:02:03;61.53;;;22.80;;
13090;SDS011;6611;52.604;13.438;2022-12-01T08:07:07;60.17;;;22.20;;
13090;SDS011;6611;52.604;13.438;2022-12-01T08:12:08;58.63;;;20.63;;
13090;SDS011;6611;52.604;13.438;2022-12-01T08:17:10;58.10;;;21.40;;
13090;SDS011;6611;52.604;13.438;2022-12-01T08:22:13;63.07;;;22.27;;
13090;SDS011;6611;52.604;13.438;2022-12-01T08:27:15;59.13;;;22.03;;
13090;SDS011;6611;52.604;13.438;2022-12-01T08:32:17;53.17;;;20.67;;
13090;SDS011;6611;52.604;13.438;2022-12-01T08:37:20;62.50;;;23.90;;
13090;SDS011;6611;52.604;13.438;2022-12-01T08:42:21;51.87;;;22.57;;
13090;SDS011;6611;52.604;13.438;2022-12-01T08:47:23;53.33;;;21.17;;
13090;SDS011;6611;52.604;13.438;2022-12-01T08:52:26;58.00;;;22.37;;
13090;SDS011;6611;52.604;13.438;2022-12-01T08:57:31;51.40;;;22.23;;
13090;SDS011;6611;52.604;13.438;2022-12-01T09:02:33;53.50;;;21.10;;
13090;SDS011;6611;52.604;13.438;2022-12-01T09:07:36;45.00;;;19.17;;
13090;SDS011;6611;52.604;13.438;2022-12-01T09:12:38;55.60;;;21.47;;
13090;SDS011;6611;52.604;13.438;2022-12-01T09:17:39;51.60;;;21.97;;
13090;SDS011;6611;52.604;13.438;2022-12-01T09:22:42;50.00;;;20.90;;
13090;SDS011;6611;52.604;13.438;2022-12-01T09:27:44;52.30;;;22.07;;
13090;SDS011;6611;52.604;13.438;2022-12-01T09:32:46;48.13;;;20.50;;
13090;SDS011;6611;52.604;13.438;2022-12-01T09:37:49;45.73;;;18.80;;
13090;SDS011;6611;52.604;13.438;2022-12-01T09:42:50;44.37;;;17.47;;
13090;SDS011;6611;52.604;13.438;2022-12-01T09:47:52;44.17;;;18.83;;
13090;SDS011;6611;52.604;13.438;2022-12-01T09:52:59;43.93;;;18.73;;
13090;SDS011;6611;52.604;13.438;2022-12-01T09:58:03;45.37;;;20.43;;
13090;SDS011;6611;52.604;13.438;2022-12-01T10:03:14;42.80;;;18.67;;
13090;SDS011;6611;52.604;13.438;2022-12-01T10:08:25;42.40;;;18.07;;
13090;SDS011;6611;52.604;13.438;2022-12-01T10:13:30;43.70;;;20.67;;
13090;SDS011;6611;52.604;13.438;2022-12-01T10:18:35;42.00;;;19.37;;
13090;SDS011;6611;52.604;13.438;2022-12-01T10:23:51;40.80;;;20.90;;
13090;SDS011;6611;52.604;13.438;2022-12-01T10:29:10;39.73;;;18.53;;
13090;SDS011;6611;52.604;13.438;2022-12-01T10:34:13;42.27;;;19.30;;
13090;SDS011;6611;52.604;13.438;2022-12-01T10:39:26;36.10;;;16.83;;
13090;SDS011;6611;52.604;13.438;2022-12-01T10:44:29;39.30;;;18.63;;
13090;SDS011;6611;52.604;13.438;2022-12-01T10:49:35;43.70;;;19.53;;
13090;SDS011;6611;52.604;13.438;2022-12-01T10:54:40;40.20;;;17.00;;
13090;SDS011;6611;52.604;13.438;2022-12-01T10:59:43;38.13;;;17.87;;
13090;SDS011;6611;52.604;13.438;2022-12-01T11:04:56;45.93;;;18.23;;
13090;SDS011;6611;52.604;13.438;2022-12-01T11:10:03;42.23;;;18.77;;
13090;SDS011;6611;52.604;13.438;2022-12-01T11:15:20;41.73;;;19.97;;
13090;SDS011;6611;52.604;13.438;2022-12-01T11:20:30;39.00;;;18.07;;
13090;SDS011;6611;52.604;13.438;2022-12-01T11:25:35;41.77;;;17.97;;
13090;SDS011;6611;52.604;13.438;2022-12-01T11:30:37;39.93;;;18.23;;
13090;SDS011;6611;52.604;13.438;2022-12-01T11:35:39;44.13;;;18.97;;
13090;SDS011;6611;52.604;13.438;2022-12-01T11:40:49;39.10;;;17.77;;
13090;SDS011;6611;52.604;13.438;2022-12-01T11:45:53;41.90;;;17.83;;
13090;SDS011;6611;52.604;13.438;2022-12-01T11:51:02;36.60;;;16.83;;
13090;SDS011;6611;52.604;13.438;2022-12-01T11:56:13;38.17;;;16.47;;
13090;SDS011;6611;52.604;13.438;2022-12-01T12:01:26;35.83;;;17.60;;
13090;SDS011;6611;52.604;13.438;2022-12-01T12:06:39;40.30;;;17.87;;
13090;SDS011;6611;52.604;13.438;2022-12-01T12:11:49;34.87;;;17.07;;
13090;SDS011;6611;52.604;13.438;2022-12-01T12:17:10;35.77;;;15.47;;
13090;SDS011;6611;52.604;13.438;2022-12-01T12:22:30;37.00;;;16.33;;
13090;SDS011;6611;52.604;13.438;2022-12-01T12:27:46;33.63;;;15.20;;
13090;SDS011;6611;52.604;13.438;2022-12-01T12:33:03;30.97;;;15.33;;
13090;SDS011;6611;52.604;13.438;2022-12-01T12:38:32;34.13;;;16.60;;
13090;SDS011;6611;52.604;13.438;2022-12-01T12:43:47;35.87;;;15.70;;
13090;SDS011;6611;52.604;13.438;2022-12-01T12:49:00;38.23;;;16.20;;
13090;SDS011;6611;52.604;13.438;2022-12-01T12:54:16;29.90;;;14.90;;
13090;SDS011;6611;52.604;13.438;2022-12-01T12:59:23;36.57;;;17.03;;
13090;SDS011;6611;52.604;13.438;2022-12-01T13:04:31;30.63;;;15.73;;
13090;SDS011;6611;52.604;13.438;2022-12-01T13:09:40;33.47;;;16.43;;
13090;SDS011;6611;52.604;13.438;2022-12-01T13:14:47;33.47;;;16.90;;
13090;SDS011;6611;52.604;13.438;2022-12-01T13:19:53;36.20;;;16.47;;
13090;SDS011;6611;52.604;13.438;2022-12-01T13:24:55;35.10;;;17.27;;
13090;SDS011;6611;52.604;13.438;2022-12-01T13:29:58;34.33;;;16.07;;
13090;SDS011;6611;52.604;13.438;2022-12-01T13:35:01;37.10;;;16.37;;
13090;SDS011;6611;52.604;13.438;2022-12-01T13:40:06;36.40;;;17.13;;
13090;SDS011;6611;52.604;13.438;2022-12-01T13:45:15;39.70;;;17.00;;
13090;SDS011;6611;52.604;13.438;2022-12-01T13:55:54;39.13;;;17.90;;
13090;SDS011;6611;52.604;13.438;2022-12-01T14:06:37;31.30;;;15.60;;
13090;SDS011;6611;52.604;13.438;2022-12-01T14:11:53;34.30;;;16.20;;
13090;SDS011;6611;52.604;13.438;2022-12-01T14:16:57;35.53;;;15.97;;
13090;SDS011;6611;52.604;13.438;2022-12-01T14:22:03;36.50;;;18.30;;
13090;SDS011;6611;52.604;13.438;2022-12-01T14:27:06;34.30;;;16.53;;
13090;SDS011;6611;52.604;13.438;2022-12-01T14:32:20;35.37;;;16.97;;
13090;SDS011;6611;52.604;13.438;2022-12-01T14:37:25;31.80;;;16.40;;
13090;SDS011;6611;52.604;13.438;2022-12-01T14:42:35;39.77;;;17.57;;
13090;SDS011;6611;52.604;13.438;2022-12-01T14:47:58;32.90;;;16.07;;
13090;SDS011;6611;52.604;13.438;2022-12-01T14:53:06;36.27;;;17.17;;
13090;SDS011;6611;52.604;13.438;2022-12-01T14:58:17;34.57;;;16.73;;
13090;SDS011;6611;52.604;13.438;2022-12-01T15:03:21;39.67;;;17.70;;
13090;SDS011;6611;52.604;13.438;2022-12-01T15:08:26;40.37;;;19.33;;
13090;SDS011;6611;52.604;13.438;2022-12-01T15:13:31;36.43;;;15.80;;
13090;SDS011;6611;52.604;13.438;2022-12-01T15:18:41;33.07;;;16.70;;
13090;SDS011;6611;52.604;13.438;2022-12-01T15:23:58;35.67;;;16.23;;
13090;SDS011;6611;52.604;13.438;2022-12-01T15:29:03;32.57;;;16.77;;
13090;SDS011;6611;52.604;13.438;2022-12-01T15:34:16;33.43;;;17.17;;
13090;SDS011;6611;52.604;13.438;2022-12-01T15:39:22;35.00;;;16.90;;
13090;SDS011;6611;52.604;13.438;2022-12-01T15:44:29;37.37;;;17.73;;
13090;SDS011;6611;52.604;13.438;2022-12-01T15:49:33;38.83;;;18.63;;
13090;SDS011;6611;52.604;13.438;2022-12-01T15:54:40;43.57;;;21.17;;
13090;SDS011;6611;52.604;13.438;2022-12-01T15:59:50;38.27;;;18.87;;
13090;SDS011;6611;52.604;13.438;2022-12-01T16:05:00;37.83;;;17.20;;
13090;SDS011;6611;52.604;13.438;2022-12-01T16:10:22;38.00;;;19.10;;
13090;SDS011;6611;52.604;13.438;2022-12-01T16:15:26;36.23;;;17.97;;
13090;SDS011;6611;52.604;13.438;2022-12-01T16:20:30;34.50;;;17.30;;
13090;SDS011;6611;52.604;13.438;2022-12-01T16:25:34;34.13;;;16.83;;
13090;SDS011;6611;52.604;13.438;2022-12-01T16:30:38;41.23;;;17.47;;
13090;SDS011;6611;52.604;13.438;2022-12-01T16:35:40;34.77;;;16.77;;
13090;SDS011;6611;52.604;13.438;2022-12-01T16:40:43;36.47;;;16.97;;
13090;SDS011;6611;52.604;13.438;2022-12-01T16:45:45;29.50;;;16.93;;
13090;SDS011;6611;52.604;13.438;2022-12-01T16:50:49;33.97;;;17.23;;
13090;SDS011;6611;52.604;13.438;2022-12-01T16:55:53;32.27;;;15.17;;
13090;SDS011;6611;52.604;13.438;2022-12-01T17:00:56;29.10;;;13.73;;
13090;SDS011;6611;52.604;13.438;2022-12-01T17:05:59;37.47;;;17.80;;
13090;SDS011;6611;52.604;13.438;2022-12-01T17:11:04;35.60;;;16.20;;
13090;SDS011;6611;52.604;13.438;2022-12-01T17:16:07;32.47;;;15.73;;
13090;SDS011;6611;52.604;13.438;2022-12-01T17:21:10;30.87;;;14.03;;
13090;SDS011;6611;52.604;13.438;2022-12-01T17:26:14;33.40;;;16.50;;
13090;SDS011;6611;52.604;13.438;2022-12-01T17:31:16;33.27;;;16.00;;
13090;SDS011;6611;52.604;13.438;2022-12-01T17:36:18;32.97;;;15.07;;
13090;SDS011;6611;52.604;13.438;2022-12-01T17:41:21;31.90;;;14.57;;
13090;SDS011;6611;52.604;13.438;2022-12-01T17:46:24;31.20;;;14.67;;
13090;SDS011;6611;52.604;13.438;2022-12-01T17:51:26;29.40;;;14.70;;
13090;SDS011;6611;52.604;13.438;2022-12-01T17:56:29;29.27;;;14.87;;
13090;SDS011;6611;52.604;13.438;2022-12-01T18:01:31;31.43;;;14.33;;
13090;SDS011;6611;52.604;13.438;2022-12-01T18:06:32;31.53;;;14.67;;
13090;SDS011;6611;52.604;13.438;2022-12-01T18:11:36;31.20;;;14.67;;
13090;SDS011;6611;52.604;13.438;2022-12-01T18:16:37;33.77;;;15.47;;
13090;SDS011;6611;52.604;13.438;2022-12-01T18:21:39;29.30;;;14.57;;
13090;SDS011;6611;52.604;13.438;2022-12-01T18:26:42;27.40;;;14.70;;
13090;SDS011;6611;52.604;13.438;2022-12-01T18:31:44;28.87;;;14.50;;
13090;SDS011;6611;52.604;13.438;2022-12-01T18:36:46;31.67;;;16.10;;
13090;SDS011;6611;52.604;13.438;2022-12-01T18:41:49;29.70;;;16.10;;
13090;SDS011;6611;52.604;13.438;2022-12-01T18:46:51;35.10;;;15.67;;
13090;SDS011;6611;52.604;13.438;2022-12-01T18:51:52;33.33;;;15.77;;
13090;SDS011;6611;52.604;13.438;2022-12-01T18:56:55;31.87;;;16.90;;
13090;SDS011;6611;52.604;13.438;2022-12-01T19:01:58;31.97;;;15.60;;
13090;SDS011;6611;52.604;13.438;2022-12-01T19:06:59;27.77;;;14.63;;
13090;SDS011;6611;52.604;13.438;2022-12-01T19:12:02;30.57;;;15.00;;
13090;SDS011;6611;52.604;13.438;2022-12-01T19:17:04;29.00;;;15.27;;
13090;SDS011;6611;52.604;13.438;2022-12-01T19:22:06;27.17;;;14.70;;
13090;SDS011;6611;52.604;13.438;2022-12-01T19:27:09;30.23;;;15.43;;
13090;SDS011;6611;52.604;13.438;2022-12-01T19:32:10;28.10;;;14.73;;
13090;SDS011;6611;52.604;13.438;2022-12-01T19:37:12;31.13;;;14.93;;
13090;SDS011;6611;52.604;13.438;2022-12-01T19:42:15;25.73;;;13.17;;
13090;SDS011;6611;52.604;13.438;2022-12-01T19:47:17;31.83;;;15.80;;
13090;SDS011;6611;52.604;13.438;2022-12-01T19:52:18;31.60;;;15.63;;
13090;SDS011;6611;52.604;13.438;2022-12-01T19:57:21;28.00;;;14.57;;
13090;SDS011;6611;52.604;13.438;2022-12-01T20:02:23;30.90;;;15.23;;
13090;SDS011;6611;52.604;13.438;2022-12-01T20:07:25;26.83;;;14.57;;
13090;SDS011;6611;52.604;13.438;2022-12-01T20:12:28;28.40;;;14.53;;
13090;SDS011;6611;52.604;13.438;2022-12-01T20:17:29;29.50;;;14.80;;
13090;SDS011;6611;52.604;13.438;2022-12-01T20:22:35;35.37;;;15.47;;
13090;SDS011;6611;52.604;13.438;2022-12-01T20:27:38;24.07;;;14.10;;
13090;SDS011;6611;52.604;13.438;2022-12-01T20:32:41;26.83;;;13.80;;
13090;SDS011;6611;52.604;13.438;2022-12-01T20:37:43;27.93;;;14.17;;
13090;SDS011;6611;52.604;13.438;2022-12-01T20:42:46;29.03;;;14.73;;
13090;SDS011;6611;52.604;13.438;2022-12-01T20:47:47;28.67;;;14.20;;
13090;SDS011;6611;52.604;13.438;2022-12-01T20:52:49;27.33;;;12.57;;
13090;SDS011;6611;52.604;13.438;2022-12-01T20:57:52;33.90;;;15.07;;
13090;SDS011;6611;52.604;13.438;2022-12-01T21:02:54;32.80;;;14.67;;
13090;SDS011;6611;52.604;13.438;2022-12-01T21:07:56;26.90;;;14.13;;
13090;SDS011;6611;52.604;13.438;2022-12-01T21:13:01;26.33;;;13.70;;
13090;SDS011;6611;52.604;13.438;2022-12-01T21:18:33;24.13;;;12.47;;
13090;SDS011;6611;52.604;13.438;2022-12-01T21:23:41;25.57;;;13.10;;
13090;SDS011;6611;52.604;13.438;2022-12-01T21:28:44;27.40;;;14.03;;
13090;SDS011;6611;52.604;13.438;2022-12-01T21:33:46;27.43;;;13.77;;
13090;SDS011;6611;52.604;13.438;2022-12-01T21:38:48;26.37;;;14.03;;
13090;SDS011;6611;52.604;13.438;2022-12-01T21:43:55;24.47;;;13.13;;
13090;SDS011;6611;52.604;13.438;2022-12-01T21:49:01;28.13;;;14.60;;
13090;SDS011;6611;52.604;13.438;2022-12-01T21:54:05;27.17;;;13.83;;
13090;SDS011;6611;52.604;13.438;2022-12-01T21:59:14;29.93;;;15.43;;
13090;SDS011;6611;52.604;13.438;2022-12-01T22:04:20;25.10;;;13.30;;
13090;SDS011;6611;52.604;13.438;2022-12-01T22:09:23;29.10;;;15.20;;
13090;SDS011;6611;52.604;13.438;2022-12-01T22:14:28;26.80;;;14.17;;
13090;SDS011;6611;52.604;13.438;2022-12-01T22:19:34;28.03;;;14.70;;
13090;SDS011;6611;52.604;13.438;2022-12-01T22:24:39;28.30;;;13.37;;
13090;SDS011;6611;52.604;13.438;2022-12-01T22:29:44;27.73;;;14.87;;
13090;SDS011;6611;52.604;13.438;2022-12-01T22:34:48;28.03;;;13.70;;
13090;SDS011;6611;52.604;13.438;2022-12-01T22:39:53;29.47;;;14.63;;
13090;SDS011;6611;52.604;13.438;2022-12-01T22:44:57;27.17;;;13.87;;
13090;SDS011;6611;52.604;13.438;2022-12-01T22:50:01;26.93;;;13.63;;
13090;SDS011;6611;52.604;13.438;2022-12-01T22:55:21;27.30;;;14.10;;
13090;SDS011;6611;52.604;13.438;2022-12-01T23:00:24;26.63;;;12.77;;
13090;SDS011;6611;52.604;13.438;2022-12-01T23:05:28;29.90;;;14.50;;
13090;SDS011;6611;52.604;13.438;2022-12-01T23:10:32;28.83;;;14.63;;
13090;SDS011;6611;52.604;13.438;2022-12-01T23:15:37;26.83;;;13.03;;
13090;SDS011;6611;52.604;13.438;2022-12-01T23:20:40;30.47;;;14.73;;
13090;SDS011;6611;52.604;13.438;2022-12-01T23:25:43;29.37;;;14.70;;
13090;SDS011;6611;52.604;13.438;2022-12-01T23:30:49;27.20;;;14.63;;
13090;SDS011;6611;52.604;13.438;2022-12-01T23:35:54;22.97;;;13.20;;
13090;SDS011;6611;52.604;13.438;2022-12-01T23:40:59;25.63;;;13.43;;
13090;SDS011;6611;52.604;13.438;2022-12-01T23:46:06;26.67;;;13.50;;
13090;SDS011;6611;52.604;13.438;2022-12-01T23:51:12;27.60;;;14.20;;
13090;SDS011;6611;52.604;13.438;2022-12-01T23:56:19;28.23;;;14.80;;
